createdAt,value
2022-09-23T00:03:17.523Z,34.42
2022-09-23T00:08:21.718Z,34.83
2022-09-23T00:13:24.790Z,34.13
2022-09-23T00:18:27.666Z,34.50
2022-09-23T00:23:32.336Z,35.17
2022-09-23T00:28:35.628Z,34.38
2022-09-23T00:33:39.384Z,34.03
2022-09-23T00:38:44.157Z,34.40
2022-09-23T00:43:49.980Z,34.05
2022-09-23T00:48:58.136Z,35.15
2022-09-23T00:54:03.079Z,34.05
2022-09-23T00:59:07.106Z,34.70
2022-09-23T01:04:10.347Z,33.90
2022-09-23T01:09:14.555Z,34.47
2022-09-23T01:14:32.117Z,34.05
2022-09-23T01:20:10.284Z,34.35
2022-09-23T01:25:33.939Z,34.80
2022-09-23T01:30:48.369Z,34.28
2022-09-23T01:36:16.492Z,34.25
2022-09-23T01:41:35.096Z,34.65
2022-09-23T01:46:45.716Z,34.20
2022-09-23T01:51:54.062Z,34.45
2022-09-23T01:57:01.788Z,34.65
2022-09-23T02:02:10.886Z,34.33
2022-09-23T02:07:20.297Z,34.80
2022-09-23T02:12:28.540Z,34.92
2022-09-23T02:17:38.408Z,35.03
2022-09-23T02:22:50.131Z,34.88
2022-09-23T02:28:01.194Z,33.95
2022-09-23T02:33:11.273Z,34.75
2022-09-23T02:38:24.321Z,34.42
2022-09-23T02:43:35.674Z,35.70
2022-09-23T02:48:44.050Z,34.20
2022-09-23T02:53:47.566Z,34.50
2022-09-23T02:58:52.355Z,34.65
2022-09-23T03:04:06.770Z,34.72
2022-09-23T03:09:15.869Z,34.05
2022-09-23T03:14:27.367Z,34.65
2022-09-23T03:19:34.606Z,34.47
2022-09-23T03:24:39.383Z,34.30
2022-09-23T03:29:47.133Z,34.95
2022-09-23T03:34:54.511Z,34.58
2022-09-23T03:40:02.770Z,35.80
2022-09-23T03:45:09.264Z,35.50
2022-09-23T03:50:14.792Z,34.60
2022-09-23T03:55:18.646Z,35.13
2022-09-23T04:00:21.607Z,35.38
2022-09-23T04:05:25.849Z,35.20
2022-09-23T04:10:28.752Z,35.13
2022-09-23T04:15:31.587Z,35.47
2022-09-23T04:20:35.767Z,35.38
2022-09-23T04:25:45.796Z,34.92
2022-09-23T04:30:49.027Z,34.72
2022-09-23T04:35:53.658Z,34.75
2022-09-23T04:40:56.787Z,35.00
2022-09-23T04:46:01.403Z,34.95
2022-09-23T04:51:07.218Z,34.42
2022-09-23T04:56:12.548Z,35.53
2022-09-23T05:01:18.127Z,39.33
2022-09-23T05:06:22.852Z,35.40
2022-09-23T05:11:26.583Z,34.72
2022-09-23T05:16:29.648Z,34.45
2022-09-23T05:21:33.975Z,34.45
2022-09-23T05:26:36.814Z,34.30
2022-09-23T05:31:39.703Z,34.95
2022-09-23T05:36:43.900Z,35.75
2022-09-23T05:41:46.716Z,35.42
2022-09-23T05:46:49.627Z,35.97
2022-09-23T05:51:53.823Z,35.80
2022-09-23T05:56:58.376Z,34.22
2022-09-23T06:02:02.170Z,34.83
2022-09-23T06:07:06.499Z,36.65
2022-09-23T06:12:09.314Z,40.17
2022-09-23T06:17:12.179Z,38.78
2022-09-23T06:22:18.562Z,35.22
2022-09-23T06:27:21.416Z,35.17
2022-09-23T06:32:24.334Z,35.78
2022-09-23T06:37:28.645Z,36.08
2022-09-23T06:42:31.480Z,36.13
2022-09-23T06:47:34.406Z,37.20
2022-09-23T06:52:38.591Z,37.25
2022-09-23T06:57:41.477Z,36.88
2022-09-23T07:02:44.415Z,37.38
2022-09-23T07:07:49.200Z,36.60
2022-09-23T07:12:54.131Z,36.35
2022-09-23T07:17:57.378Z,36.78
2022-09-23T07:23:04.500Z,37.22
2022-09-23T07:28:07.975Z,36.97
2022-09-23T07:33:27.045Z,38.05
2022-09-23T07:38:34.303Z,37.28
2022-09-23T07:43:37.862Z,37.35
2022-09-23T07:48:41.014Z,37.08
2022-09-23T07:53:48.126Z,37.53
2022-09-23T07:59:00.093Z,36.65
2022-09-23T08:04:05.898Z,36.33
2022-09-23T08:09:10.526Z,36.75
2022-09-23T08:14:15.175Z,36.95
2022-09-23T08:19:18.465Z,37.15
2022-09-23T08:24:24.250Z,37.90
2022-09-23T08:29:27.434Z,36.33
2022-09-23T08:34:30.374Z,36.42
2022-09-23T08:39:34.741Z,36.53
2022-09-23T08:44:47.642Z,36.13
2022-09-23T08:49:58.483Z,36.65
2022-09-23T08:55:03.367Z,40.42
2022-09-23T09:00:07.528Z,36.42
2022-09-23T09:05:26.800Z,36.70
2022-09-23T09:10:38.898Z,37.00
2022-09-23T09:15:49.196Z,36.00
2022-09-23T09:21:00.218Z,36.05
2022-09-23T09:26:06.956Z,36.90
2022-09-23T09:31:25.362Z,36.78
2022-09-23T09:36:35.938Z,36.00
2022-09-23T09:41:42.765Z,36.20
2022-09-23T09:47:16.097Z,36.00
2022-09-23T09:52:24.280Z,36.42
2022-09-23T09:57:38.599Z,36.90
2022-09-23T10:02:42.339Z,37.78
2022-09-23T10:07:49.489Z,36.75
2022-09-23T10:12:54.018Z,37.53
2022-09-23T10:17:56.889Z,36.85
2022-09-23T10:23:07.652Z,37.83
2022-09-23T10:28:43.119Z,37.00
2022-09-23T10:33:50.142Z,37.10
2022-09-23T10:39:17.050Z,36.90
2022-09-23T10:44:50.870Z,37.33
2022-09-23T10:50:09.715Z,37.92
2022-09-23T10:55:27.267Z,37.97
2022-09-23T11:00:41.268Z,37.97
2022-09-23T11:05:53.623Z,37.17
2022-09-23T11:11:09.904Z,37.53
2022-09-23T11:16:25.638Z,36.92
2022-09-23T11:21:57.060Z,37.13
2022-09-23T11:27:12.127Z,36.70
2022-09-23T11:32:38.480Z,36.75
2022-09-23T11:37:48.329Z,37.22
2022-09-23T11:42:58.024Z,37.58
2022-09-23T11:48:06.710Z,37.22
2022-09-23T11:53:19.229Z,37.70
2022-09-23T11:58:27.045Z,36.88
2022-09-23T12:03:44.857Z,37.40
2022-09-23T12:08:59.982Z,38.10
2022-09-23T12:14:13.990Z,37.63
2022-09-23T12:19:32.422Z,37.90
2022-09-23T12:24:55.495Z,37.10
2022-09-23T12:30:02.681Z,38.38
2022-09-23T12:35:07.726Z,37.58
2022-09-23T12:40:21.465Z,38.38
2022-09-23T12:45:39.715Z,38.25
2022-09-23T12:50:52.604Z,37.63
2022-09-23T12:55:55.922Z,38.10
2022-09-23T13:01:09.895Z,37.35
2022-09-23T13:06:31.854Z,37.85
2022-09-23T13:11:40.363Z,37.63
2022-09-23T13:16:45.601Z,37.78
2022-09-23T13:22:08.824Z,37.17
2022-09-23T13:27:17.011Z,37.33
2022-09-23T13:32:22.286Z,37.60
2022-09-23T13:37:32.253Z,38.03
2022-09-23T13:42:37.776Z,37.47
2022-09-23T13:47:43.896Z,38.03
2022-09-23T13:52:53.408Z,38.60
2022-09-23T13:58:01.371Z,38.33
2022-09-23T14:03:16.689Z,38.10
2022-09-23T14:08:21.510Z,38.10
2022-09-23T14:13:27.276Z,37.58
2022-09-23T14:18:35.561Z,37.25
2022-09-23T14:23:46.863Z,37.95
2022-09-23T14:28:50.375Z,38.03
2022-09-23T14:33:53.686Z,38.17
2022-09-23T14:39:05.064Z,37.95
2022-09-23T14:44:08.926Z,38.20
2022-09-23T14:49:18.112Z,37.90
2022-09-23T14:54:36.819Z,37.75
2022-09-23T14:59:51.408Z,38.50
2022-09-23T15:05:09.558Z,38.10
2022-09-23T15:10:23.369Z,38.22
2022-09-23T15:15:29.008Z,38.65
2022-09-23T15:20:37.974Z,38.78
2022-09-23T15:25:43.000Z,37.95
2022-09-23T15:30:46.153Z,38.17
2022-09-23T15:35:50.229Z,38.30
2022-09-23T15:40:54.946Z,38.08
2022-09-23T15:45:59.942Z,38.10
2022-09-23T15:51:06.870Z,38.15
2022-09-23T15:56:11.087Z,39.05
2022-09-23T16:01:21.774Z,38.67
2022-09-23T16:06:25.885Z,37.95
2022-09-23T16:11:34.503Z,37.92
2022-09-23T16:16:37.529Z,38.63
2022-09-23T16:21:44.926Z,39.08
2022-09-23T16:27:06.515Z,38.70
2022-09-23T16:32:16.875Z,38.67
2022-09-23T16:37:22.103Z,41.58
2022-09-23T16:42:29.693Z,38.50
2022-09-23T16:47:32.860Z,38.13
2022-09-23T16:52:39.452Z,38.13
2022-09-23T16:57:44.620Z,39.75
2022-09-23T17:03:09.250Z,44.45
2022-09-23T17:08:13.382Z,40.28
2022-09-23T17:13:32.452Z,39.75
2022-09-23T17:18:38.894Z,39.50
2022-09-23T17:23:42.990Z,38.63
2022-09-23T17:28:52.087Z,38.85
2022-09-23T17:34:08.340Z,38.55
2022-09-23T17:39:15.212Z,38.80
2022-09-23T17:44:38.801Z,38.40
2022-09-23T17:49:42.897Z,38.17
2022-09-23T17:54:59.319Z,38.03
2022-09-23T18:00:04.678Z,38.50
2022-09-23T18:05:33.265Z,38.20
2022-09-23T18:10:36.403Z,37.50
2022-09-23T18:15:49.377Z,37.70
2022-09-23T18:20:52.850Z,37.45
2022-09-23T18:25:55.965Z,37.95
2022-09-23T18:31:06.862Z,38.28
2022-09-23T18:43:06.638Z,39.13
2022-09-23T18:48:29.485Z,38.83
2022-09-23T18:53:33.470Z,38.83
2022-09-23T18:58:36.500Z,38.92
2022-09-23T19:03:40.877Z,38.75
2022-09-23T19:08:45.349Z,38.85
2022-09-23T19:13:55.344Z,38.42
2022-09-23T19:19:00.615Z,37.92
2022-09-23T19:24:06.532Z,38.08
2022-09-23T19:29:14.330Z,37.42
2022-09-23T19:34:29.094Z,36.88
2022-09-23T19:39:37.577Z,37.28
2022-09-23T19:44:46.827Z,37.80
2022-09-23T19:49:53.807Z,37.95
2022-09-23T19:55:01.471Z,37.50
2022-09-23T20:00:06.020Z,41.83
2022-09-23T20:05:20.547Z,37.90
2022-09-23T20:10:24.387Z,38.17
2022-09-23T20:15:29.037Z,36.85
2022-09-23T20:20:33.709Z,37.03
2022-09-23T20:26:01.209Z,36.85
2022-09-23T20:31:04.220Z,37.15
2022-09-23T20:36:09.167Z,36.35
2022-09-23T20:41:12.059Z,36.33
2022-09-23T20:46:16.308Z,36.33
2022-09-23T20:51:20.899Z,36.35
2022-09-23T20:56:25.375Z,36.47
2022-09-23T21:01:28.690Z,36.17
2022-09-23T21:06:35.035Z,35.83
2022-09-23T21:11:38.219Z,36.10
2022-09-23T21:16:41.535Z,36.40
2022-09-23T21:21:45.821Z,36.00
2022-09-23T21:26:50.430Z,35.78
2022-09-23T21:31:53.535Z,36.00
2022-09-23T21:36:57.808Z,36.40
2022-09-23T21:42:01.495Z,36.97
2022-09-23T21:47:04.406Z,36.42
2022-09-23T21:52:08.693Z,35.80
2022-09-23T21:57:12.278Z,37.40
2022-09-23T22:02:15.854Z,37.05
2022-09-23T22:07:20.981Z,36.70
2022-09-23T22:12:24.094Z,36.75
2022-09-23T22:17:26.980Z,36.20
2022-09-23T22:22:31.195Z,37.35
2022-09-23T22:27:54.029Z,37.42
2022-09-23T22:32:58.045Z,37.50
2022-09-23T22:38:02.275Z,37.08
2022-09-23T22:43:05.187Z,36.95
2022-09-23T22:48:08.085Z,36.40
2022-09-23T22:53:12.792Z,36.08
2022-09-23T22:58:31.718Z,36.67
2022-09-23T23:03:36.209Z,36.70
2022-09-23T23:08:40.627Z,36.88
2022-09-23T23:13:43.989Z,38.83
2022-09-23T23:18:47.687Z,39.60
2022-09-23T23:23:53.584Z,38.85
2022-09-23T23:28:56.963Z,39.45
2022-09-23T23:33:59.951Z,39.78
2022-09-23T23:39:04.484Z,39.25
2022-09-23T23:44:07.846Z,39.28
2022-09-23T23:49:10.739Z,38.65
2022-09-23T23:54:15.637Z,37.55
2022-09-23T23:59:20.131Z,37.05
